createdAt,value
2019-03-10T00:02:11.443Z,8.40
2019-03-10T00:07:03.052Z,8.40
2019-03-10T00:11:55.216Z,8.50
2019-03-10T00:16:47.535Z,8.50
2019-03-10T00:21:39.657Z,8.40
2019-03-10T00:26:31.882Z,8.40
2019-03-10T00:31:23.907Z,8.40
2019-03-10T00:36:15.828Z,8.40
2019-03-10T00:41:11.493Z,8.30
2019-03-10T00:46:02.841Z,8.30
2019-03-10T00:50:54.802Z,8.30
2019-03-10T00:55:46.746Z,8.30
2019-03-10T01:00:39.279Z,8.30
2019-03-10T01:05:31.422Z,8.20
2019-03-10T01:10:24.055Z,8.20
2019-03-10T01:15:17.193Z,8.10
2019-03-10T01:20:08.778Z,8.10
2019-03-10T01:25:01.171Z,8.10
2019-03-10T01:29:53.093Z,8.10
2019-03-10T01:34:45.212Z,8.10
2019-03-10T01:39:37.190Z,8.10
2019-03-10T01:44:28.857Z,8.10
2019-03-10T01:49:20.954Z,8.10
2019-03-10T01:54:13.300Z,8.00
2019-03-10T01:59:05.680Z,8.00
2019-03-10T02:03:57.386Z,8.00
2019-03-10T02:08:49.297Z,8.00
2019-03-10T02:13:41.449Z,8.10
2019-03-10T02:18:33.439Z,8.10
2019-03-10T02:23:25.434Z,8.00
2019-03-10T02:28:17.473Z,8.00
2019-03-10T02:33:09.571Z,8.00
2019-03-10T02:38:01.586Z,7.90
2019-03-10T02:42:53.664Z,7.90
2019-03-10T02:47:45.478Z,7.80
2019-03-10T02:52:38.400Z,7.80
2019-03-10T02:57:30.157Z,7.70
2019-03-10T03:02:23.037Z,7.60
2019-03-10T03:07:14.851Z,7.50
2019-03-10T03:12:06.772Z,7.40
2019-03-10T03:16:58.833Z,7.40
2019-03-10T03:21:50.854Z,7.40
2019-03-10T03:26:42.799Z,7.30
2019-03-10T03:31:35.191Z,7.30
2019-03-10T03:36:27.168Z,7.20
2019-03-10T03:41:19.263Z,7.20
2019-03-10T03:46:11.955Z,7.10
2019-03-10T03:51:03.926Z,7.10
2019-03-10T03:55:55.783Z,6.90
2019-03-10T04:00:47.638Z,6.90
2019-03-10T04:05:39.620Z,6.80
2019-03-10T04:10:31.417Z,6.70
2019-03-10T04:15:23.594Z,6.60
2019-03-10T04:20:15.566Z,6.60
2019-03-10T04:25:07.750Z,6.50
2019-03-10T04:29:59.553Z,6.50
2019-03-10T04:34:51.579Z,6.40
2019-03-10T04:39:43.394Z,6.30
2019-03-10T04:44:37.155Z,6.30
2019-03-10T04:49:28.361Z,6.30
2019-03-10T04:54:20.522Z,6.30
2019-03-10T04:59:12.581Z,6.40
2019-03-10T05:04:04.044Z,6.40
2019-03-10T05:08:53.943Z,6.50
2019-03-10T05:13:46.120Z,6.50
2019-03-10T05:18:38.171Z,6.40
2019-03-10T05:23:30.246Z,6.30
2019-03-10T05:28:22.201Z,6.30
2019-03-10T05:33:13.965Z,6.30
2019-03-10T05:38:06.005Z,6.20
2019-03-10T05:42:57.931Z,6.20
2019-03-10T05:47:49.733Z,6.20
2019-03-10T05:52:41.766Z,6.10
2019-03-10T05:57:33.492Z,6.10
2019-03-10T06:02:27.442Z,6.00
2019-03-10T06:07:18.603Z,5.90
2019-03-10T06:12:10.416Z,5.90
2019-03-10T06:17:02.337Z,5.90
2019-03-10T06:21:54.306Z,5.90
2019-03-10T06:26:48.459Z,5.90
2019-03-10T06:31:39.961Z,5.80
2019-03-10T06:36:31.786Z,5.80
2019-03-10T06:41:23.614Z,5.70
2019-03-10T13:09:48.364Z,9.40
2019-03-10T13:35:20.502Z,9.20
2019-03-10T13:40:13.267Z,9.20
2019-03-10T13:45:05.394Z,9.10
2019-03-10T13:49:57.870Z,8.90
2019-03-10T13:54:47.689Z,9.00
2019-03-10T13:59:39.847Z,8.90
2019-03-10T14:04:31.910Z,8.70
2019-03-10T14:09:24.095Z,8.70
2019-03-10T14:14:16.115Z,8.80
2019-03-10T14:19:08.266Z,8.90
2019-03-10T14:24:00.592Z,9.00
2019-03-10T14:28:51.655Z,8.90
2019-03-10T14:33:43.415Z,8.90
2019-03-10T14:38:35.139Z,8.90
2019-03-10T14:43:26.918Z,8.80
2019-03-10T14:48:18.715Z,8.70
2019-03-10T14:53:10.606Z,8.70
2019-03-10T14:58:02.689Z,8.60
2019-03-10T15:02:54.840Z,8.60
2019-03-10T15:07:46.843Z,8.60
2019-03-10T15:12:38.771Z,8.50
2019-03-10T15:17:30.671Z,8.40
2019-03-10T15:22:22.498Z,8.40
2019-03-10T15:27:24.024Z,8.40
2019-03-10T15:32:14.260Z,8.40
2019-03-10T15:37:06.646Z,8.40
2019-03-10T15:41:58.711Z,8.30
2019-03-10T15:46:50.447Z,8.20
2019-03-10T15:51:42.293Z,8.10
2019-03-10T15:56:34.154Z,8.00
2019-03-10T16:01:26.192Z,7.80
2019-03-10T16:06:18.390Z,7.80
2019-03-10T16:11:10.182Z,7.60
2019-03-10T16:16:04.268Z,7.50
2019-03-10T16:20:55.487Z,7.30
2019-03-10T16:25:47.267Z,6.80
2019-03-10T16:30:38.901Z,6.30
2019-03-10T16:35:30.703Z,6.10
2019-03-10T16:40:22.714Z,6.00
2019-03-10T16:45:14.539Z,5.90
2019-03-10T16:50:06.239Z,5.90
2019-03-10T16:54:57.922Z,5.90
2019-03-10T16:59:49.528Z,5.90
2019-03-10T17:04:41.015Z,5.80
2019-03-10T17:09:32.817Z,5.70
2019-03-10T17:14:24.702Z,5.70
2019-03-10T17:19:18.819Z,5.60
2019-03-10T17:24:10.425Z,5.60
2019-03-10T17:29:02.337Z,5.50
2019-03-10T17:33:53.907Z,5.50
2019-03-10T17:38:45.755Z,5.50
2019-03-10T17:43:37.380Z,5.50
2019-03-10T17:48:29.286Z,5.40
2019-03-10T17:53:21.500Z,5.40
2019-03-10T17:58:13.698Z,5.40
2019-03-10T18:03:05.770Z,5.50
2019-03-10T18:07:57.681Z,5.60
2019-03-10T18:12:49.737Z,5.70
2019-03-10T18:17:41.831Z,5.80
2019-03-10T18:22:33.729Z,5.80
2019-03-10T18:27:25.826Z,5.90
2019-03-10T18:32:18.325Z,5.90
2019-03-10T18:37:10.077Z,5.80
2019-03-10T18:42:01.963Z,5.80
2019-03-10T18:46:53.837Z,5.80
2019-03-10T18:51:45.663Z,5.70
2019-03-10T18:56:37.739Z,5.70
2019-03-10T19:01:31.323Z,5.70
2019-03-10T19:06:23.003Z,5.60
2019-03-10T19:11:14.811Z,5.50
2019-03-10T19:16:06.717Z,5.40
2019-03-10T19:21:00.808Z,5.30
2019-03-10T19:25:52.192Z,5.20
2019-03-10T19:30:44.050Z,5.20
2019-03-10T19:35:36.155Z,5.10
2019-03-10T19:40:28.088Z,5.10
2019-03-10T19:45:20.162Z,5.20
2019-03-10T19:50:12.105Z,5.20
2019-03-10T19:55:03.971Z,5.20
2019-03-10T19:59:55.794Z,5.20
2019-03-10T20:04:47.082Z,4.90
2019-03-10T20:09:38.372Z,4.00
2019-03-10T20:14:29.980Z,3.10
2019-03-10T20:19:21.420Z,2.60
2019-03-10T20:24:12.966Z,2.30
2019-03-10T20:29:04.590Z,2.20
2019-03-10T20:33:56.566Z,2.10
2019-03-10T20:38:48.320Z,2.20
2019-03-10T20:43:40.081Z,2.00
2019-03-10T20:48:31.794Z,1.90
2019-03-10T20:53:25.674Z,1.80
2019-03-10T20:58:17.979Z,1.80
2019-03-10T21:03:09.870Z,1.90
2019-03-10T21:08:01.676Z,1.90
2019-03-10T21:12:53.698Z,2.00
2019-03-10T21:17:45.418Z,2.00
2019-03-10T21:22:37.591Z,2.10
2019-03-10T21:27:29.461Z,2.10
2019-03-10T21:32:21.658Z,2.30
2019-03-10T21:37:13.608Z,2.40
2019-03-10T21:42:06.182Z,2.40
2019-03-10T21:46:59.769Z,2.50
2019-03-10T21:51:51.194Z,2.50
2019-03-10T21:56:43.038Z,2.70
2019-03-10T22:01:36.985Z,2.70
2019-03-10T22:06:30.257Z,2.80
2019-03-10T22:11:21.612Z,2.80
2019-03-10T22:16:13.696Z,2.90
2019-03-10T22:21:05.504Z,2.90
2019-03-10T22:25:57.114Z,2.90
2019-03-10T22:30:48.862Z,2.90
2019-03-10T22:35:42.866Z,2.90
2019-03-10T22:40:34.037Z,3.00
2019-03-10T22:45:26.106Z,3.00
2019-03-10T22:50:18.010Z,3.10
2019-03-10T22:55:10.087Z,3.20
2019-03-10T23:00:02.123Z,3.30
2019-03-10T23:04:54.082Z,3.40
2019-03-10T23:09:46.217Z,3.60
2019-03-10T23:14:38.141Z,3.70
2019-03-10T23:19:30.040Z,3.90
2019-03-10T23:24:21.973Z,4.00
2019-03-10T23:29:13.778Z,3.90
2019-03-10T23:34:05.619Z,3.80
2019-03-10T23:38:57.352Z,3.80
2019-03-10T23:43:49.286Z,3.70
2019-03-10T23:48:41.020Z,3.70
2019-03-10T23:53:33.086Z,3.60
2019-03-10T23:58:26.809Z,3.60
